createdAt,value
2018-08-13T00:01:02.587Z,4.73
2018-08-13T00:03:31.237Z,7.97
2018-08-13T00:05:59.697Z,3.07
2018-08-13T00:08:28.110Z,4.90
2018-08-13T00:10:56.558Z,5.13
2018-08-13T00:13:25.114Z,4.33
2018-08-13T00:15:53.569Z,3.40
2018-08-13T00:18:22.015Z,3.40
2018-08-13T00:20:50.446Z,4.80
2018-08-13T00:23:18.911Z,3.23
2018-08-13T00:25:47.318Z,2.80
2018-08-13T00:28:15.773Z,5.47
2018-08-13T00:30:44.235Z,4.73
2018-08-13T00:33:12.806Z,6.43
2018-08-13T00:35:41.250Z,3.40
2018-08-13T00:38:09.685Z,3.43
2018-08-13T00:40:38.115Z,4.23
2018-08-13T00:43:07.200Z,6.87
2018-08-13T00:45:35.641Z,3.70
2018-08-13T00:48:04.195Z,5.77
2018-08-13T00:50:32.626Z,6.43
2018-08-13T00:53:01.095Z,4.90
2018-08-13T00:55:29.653Z,3.63
2018-08-13T00:57:58.087Z,3.57
2018-08-13T01:00:26.628Z,3.43
2018-08-13T01:02:55.149Z,4.70
2018-08-13T01:05:23.573Z,2.93
2018-08-13T01:07:51.995Z,4.07
2018-08-13T01:10:21.558Z,6.37
2018-08-13T01:12:50.085Z,4.50
2018-08-13T01:15:19.528Z,3.97
2018-08-13T01:17:49.137Z,5.53
2018-08-13T01:20:19.872Z,3.80
2018-08-13T01:22:48.403Z,4.40
2018-08-13T01:25:18.177Z,4.83
2018-08-13T01:27:46.646Z,6.90
2018-08-13T01:30:16.591Z,2.93
2018-08-13T01:32:45.121Z,6.07
2018-08-13T01:35:13.531Z,6.57
2018-08-13T01:37:42.107Z,3.97
2018-08-13T01:40:11.510Z,6.10
2018-08-13T01:42:39.963Z,4.40
2018-08-13T01:45:09.906Z,4.83
2018-08-13T01:47:38.434Z,4.47
2018-08-13T01:50:09.393Z,4.67
2018-08-13T01:52:37.887Z,3.20
2018-08-13T01:55:07.655Z,4.10
2018-08-13T01:57:36.078Z,7.17
2018-08-13T02:00:10.163Z,5.33
2018-08-13T02:02:38.691Z,4.93
2018-08-13T02:05:07.133Z,6.13
2018-08-13T02:07:35.771Z,5.90
2018-08-13T02:10:04.839Z,4.83
2018-08-13T02:12:33.279Z,6.40
2018-08-13T02:15:01.743Z,5.80
2018-08-13T02:17:30.302Z,7.53
2018-08-13T02:19:58.755Z,4.53
2018-08-13T02:22:27.298Z,5.87
2018-08-13T02:24:55.755Z,6.43
2018-08-13T02:27:24.198Z,7.27
2018-08-13T02:29:52.633Z,5.90
2018-08-13T02:32:21.153Z,7.33
2018-08-13T02:34:49.610Z,9.30
2018-08-13T02:37:18.056Z,7.53
2018-08-13T02:39:46.478Z,5.40
2018-08-13T02:42:14.988Z,7.83
2018-08-13T02:44:43.451Z,6.10
2018-08-13T02:47:11.907Z,6.77
2018-08-13T02:49:40.333Z,5.90
2018-08-13T02:52:08.826Z,5.37
2018-08-13T02:54:37.262Z,4.63
2018-08-13T02:57:06.269Z,4.47
2018-08-13T02:59:34.752Z,6.03
2018-08-13T03:02:03.283Z,6.13
2018-08-13T03:04:31.773Z,4.80
2018-08-13T03:07:00.248Z,4.43
2018-08-13T03:09:28.691Z,6.93
2018-08-13T03:11:57.135Z,7.63
2018-08-13T03:14:25.570Z,5.47
2018-08-13T03:16:54.320Z,5.50
2018-08-13T03:19:22.751Z,7.47
2018-08-13T03:21:51.251Z,6.47
2018-08-13T03:24:19.784Z,6.03
2018-08-13T03:26:48.230Z,5.10
2018-08-13T03:29:16.695Z,4.67
2018-08-13T03:31:45.106Z,6.27
2018-08-13T03:34:13.618Z,5.87
2018-08-13T03:36:42.057Z,5.40
2018-08-13T03:39:14.068Z,5.07
2018-08-13T03:41:43.230Z,7.77
2018-08-13T03:44:12.298Z,6.90
2018-08-13T03:46:40.754Z,5.03
2018-08-13T03:49:10.598Z,6.33
2018-08-13T03:51:39.101Z,7.93
2018-08-13T03:54:07.684Z,5.57
2018-08-13T03:56:36.118Z,10.57
2018-08-13T03:59:04.563Z,7.60
2018-08-13T04:01:32.984Z,7.60
2018-08-13T04:04:01.444Z,6.30
2018-08-13T04:06:29.931Z,6.03
2018-08-13T04:08:58.478Z,8.30
2018-08-13T04:11:26.878Z,6.63
2018-08-13T04:13:55.346Z,5.20
2018-08-13T04:16:23.782Z,6.90
2018-08-13T04:18:52.242Z,7.00
2018-08-13T04:21:20.687Z,6.60
2018-08-13T04:23:49.219Z,5.40
2018-08-13T04:26:17.722Z,6.10
2018-08-13T04:28:46.135Z,9.27
2018-08-13T04:31:14.554Z,7.53
2018-08-13T04:33:43.099Z,7.00
2018-08-13T04:36:11.615Z,8.97
2018-08-13T04:38:40.159Z,9.90
2018-08-13T04:41:08.632Z,7.70
2018-08-13T04:43:37.152Z,9.43
2018-08-13T04:46:05.591Z,6.87
2018-08-13T04:48:34.020Z,9.17
2018-08-13T04:51:02.460Z,10.40
2018-08-13T04:53:31.003Z,9.00
2018-08-13T04:55:59.453Z,6.73
2018-08-13T04:58:27.884Z,6.53
2018-08-13T05:00:56.360Z,9.47
2018-08-13T05:03:24.832Z,8.80
2018-08-13T05:05:53.303Z,10.00
2018-08-13T05:08:21.726Z,9.43
2018-08-13T05:10:50.180Z,8.87
2018-08-13T05:13:18.627Z,7.40
2018-08-13T05:15:47.070Z,8.37
2018-08-13T05:18:15.503Z,10.73
2018-08-13T05:20:43.963Z,8.77
2018-08-13T05:23:12.463Z,8.37
2018-08-13T05:25:40.980Z,9.83
2018-08-13T05:28:09.402Z,8.27
2018-08-13T05:30:37.852Z,10.10
2018-08-13T05:33:06.379Z,8.43
2018-08-13T05:35:34.813Z,7.80
2018-08-13T05:38:03.245Z,11.53
2018-08-13T05:40:31.683Z,7.33
2018-08-13T05:43:00.195Z,10.67
2018-08-13T05:45:28.672Z,8.60
2018-08-13T05:47:57.117Z,10.93
2018-08-13T05:50:25.583Z,9.87
2018-08-13T05:52:54.070Z,8.53
2018-08-13T05:55:22.498Z,12.27
2018-08-13T05:57:50.982Z,9.70
2018-08-13T06:00:19.450Z,7.57
2018-08-13T06:02:47.958Z,8.33
2018-08-13T06:05:16.427Z,8.57
2018-08-13T06:07:44.890Z,8.03
2018-08-13T06:10:13.878Z,12.20
2018-08-13T06:12:42.495Z,7.17
2018-08-13T06:15:12.461Z,8.07
2018-08-13T06:17:41.034Z,8.67
2018-08-13T06:20:11.081Z,10.07
2018-08-13T06:22:40.715Z,8.53
2018-08-13T06:25:09.456Z,11.40
2018-08-13T06:27:37.886Z,11.07
2018-08-13T06:30:10.385Z,10.47
2018-08-13T06:32:39.251Z,11.80
2018-08-13T06:35:07.688Z,9.17
2018-08-13T06:37:36.128Z,10.60
2018-08-13T06:40:05.007Z,11.03
2018-08-13T06:42:33.524Z,10.03
2018-08-13T06:45:01.968Z,10.27
2018-08-13T06:47:30.434Z,11.10
2018-08-13T06:49:58.909Z,11.13
2018-08-13T06:52:27.421Z,9.33
2018-08-13T06:54:55.871Z,12.27
2018-08-13T06:57:24.353Z,10.20
2018-08-13T06:59:52.790Z,11.00
2018-08-13T07:02:22.294Z,9.73
2018-08-13T07:04:50.694Z,11.40
2018-08-13T07:07:19.128Z,11.37
2018-08-13T07:09:47.885Z,9.57
2018-08-13T07:12:16.420Z,8.47
2018-08-13T07:14:44.859Z,9.40
2018-08-13T07:17:13.339Z,10.47
2018-08-13T07:19:41.831Z,9.13
2018-08-13T07:22:10.423Z,10.77
2018-08-13T07:24:38.812Z,8.33
2018-08-13T07:27:07.259Z,7.83
2018-08-13T07:29:35.724Z,8.03
2018-08-13T07:32:05.211Z,8.93
2018-08-13T07:34:33.684Z,9.57
2018-08-13T07:37:02.128Z,10.57
2018-08-13T07:39:30.651Z,8.83
2018-08-13T07:41:59.080Z,8.33
2018-08-13T07:44:27.515Z,10.10
2018-08-13T07:46:55.989Z,9.63
2018-08-13T07:49:24.454Z,6.53
2018-08-13T07:51:53.004Z,6.70
2018-08-13T07:54:21.451Z,10.40
2018-08-13T07:56:49.884Z,7.80
2018-08-13T07:59:18.376Z,8.47
2018-08-13T08:01:46.820Z,7.90
2018-08-13T08:04:15.366Z,9.63
2018-08-13T08:06:43.811Z,6.77
2018-08-13T08:09:13.126Z,8.43
2018-08-13T08:11:41.605Z,7.67
2018-08-13T08:14:10.233Z,11.10
2018-08-13T08:16:38.742Z,8.57
2018-08-13T08:19:07.236Z,9.93
2018-08-13T08:21:35.665Z,9.83
2018-08-13T08:24:04.179Z,8.43
2018-08-13T08:26:32.636Z,8.97
2018-08-13T08:29:01.107Z,7.63
2018-08-13T08:31:29.516Z,8.10
2018-08-13T08:33:58.050Z,6.80
2018-08-13T08:36:26.492Z,6.80
2018-08-13T08:38:54.930Z,8.03
2018-08-13T08:41:23.410Z,7.10
2018-08-13T08:43:51.897Z,7.97
2018-08-13T08:46:20.369Z,5.60
2018-08-13T08:48:48.803Z,5.63
2018-08-13T08:51:17.259Z,5.83
2018-08-13T08:53:45.742Z,4.27
2018-08-13T08:56:14.198Z,3.80
2018-08-13T08:58:42.697Z,4.07
2018-08-13T09:01:11.167Z,4.77
2018-08-13T09:03:39.648Z,4.87
2018-08-13T09:06:08.141Z,5.10
2018-08-13T09:08:36.596Z,4.93
2018-08-13T09:11:05.105Z,5.33
2018-08-13T09:13:33.704Z,4.97
2018-08-13T09:16:02.216Z,4.93
2018-08-13T09:18:42.127Z,6.27
2018-08-13T09:21:21.879Z,5.93
2018-08-13T09:24:01.607Z,6.77
2018-08-13T09:26:41.777Z,6.53
2018-08-13T09:29:21.398Z,6.17
2018-08-13T09:32:18.601Z,5.70
2018-08-13T09:35:22.309Z,6.37
2018-08-13T09:37:50.743Z,6.90
2018-08-13T09:40:19.223Z,4.40
2018-08-13T09:42:47.750Z,5.27
2018-08-13T09:45:16.221Z,5.33
2018-08-13T09:47:44.743Z,4.67
2018-08-13T09:50:15.460Z,5.83
2018-08-13T09:52:44.668Z,4.63
2018-08-13T09:55:14.050Z,4.53
2018-08-13T09:57:43.374Z,4.43
2018-08-13T10:00:18.064Z,4.80
2018-08-13T10:02:48.422Z,4.30
2018-08-13T10:05:17.073Z,3.57
2018-08-13T10:07:46.000Z,2.77
2018-08-13T10:10:15.077Z,2.57
2018-08-13T10:12:44.403Z,2.63
2018-08-13T10:15:13.660Z,1.80
2018-08-13T10:17:42.193Z,1.87
2018-08-13T10:20:17.088Z,1.60
2018-08-13T10:22:45.785Z,3.80
2018-08-13T10:25:14.335Z,3.47
2018-08-13T10:27:42.930Z,2.23
2018-08-13T10:30:13.778Z,3.23
2018-08-13T10:32:42.400Z,2.43
2018-08-13T10:35:11.121Z,5.53
2018-08-13T10:37:40.266Z,5.33
2018-08-13T10:40:18.178Z,4.80
2018-08-13T10:42:47.046Z,7.60
2018-08-13T10:45:15.960Z,6.37
2018-08-13T10:47:45.152Z,3.80
2018-08-13T10:50:14.355Z,2.83
2018-08-13T10:52:42.967Z,3.47
2018-08-13T10:55:13.059Z,3.37
2018-08-13T10:57:41.738Z,1.87
2018-08-13T11:00:12.839Z,1.93
2018-08-13T11:02:41.396Z,3.97
2018-08-13T11:05:11.380Z,1.60
2018-08-13T11:07:39.897Z,3.33
2018-08-13T11:10:10.467Z,2.20
2018-08-13T11:12:39.213Z,3.20
2018-08-13T11:15:13.003Z,1.87
2018-08-13T11:17:41.473Z,2.33
2018-08-13T11:20:09.954Z,4.93
2018-08-13T11:22:39.171Z,2.30
2018-08-13T11:25:08.956Z,4.97
2018-08-13T11:27:37.428Z,18.67
2018-08-13T11:30:07.407Z,17.80
2018-08-13T11:32:35.909Z,14.07
2018-08-13T11:35:04.775Z,5.00
2018-08-13T11:37:33.243Z,6.17
2018-08-13T11:40:01.715Z,7.90
2018-08-13T11:42:30.241Z,3.70
2018-08-13T11:44:58.696Z,7.63
2018-08-13T11:47:27.116Z,5.07
2018-08-13T11:49:55.546Z,4.40
2018-08-13T11:52:24.068Z,6.73
2018-08-13T11:54:52.515Z,5.70
2018-08-13T11:57:20.975Z,5.40
2018-08-13T11:59:49.406Z,5.43
2018-08-13T12:02:17.883Z,7.03
2018-08-13T12:04:46.317Z,6.70
2018-08-13T12:07:14.774Z,9.03
2018-08-13T12:09:43.233Z,7.60
2018-08-13T12:12:11.715Z,9.83
2018-08-13T12:14:40.159Z,5.80
2018-08-13T12:17:08.632Z,6.47
2018-08-13T12:19:37.180Z,8.27
2018-08-13T12:22:05.669Z,10.07
2018-08-13T12:24:34.298Z,6.03
2018-08-13T12:27:02.773Z,7.33
2018-08-13T12:29:31.772Z,8.10
2018-08-13T12:32:00.264Z,7.00
2018-08-13T12:34:28.936Z,8.07
2018-08-13T12:37:02.647Z,6.07
2018-08-13T12:39:31.104Z,9.23
2018-08-13T12:41:59.563Z,10.73
2018-08-13T12:44:28.003Z,9.50
2018-08-13T12:46:56.447Z,8.73
2018-08-13T12:49:25.047Z,11.07
2018-08-13T12:51:53.476Z,10.30
2018-08-13T12:54:21.985Z,8.97
2018-08-13T12:56:50.471Z,7.47
2018-08-13T12:59:18.954Z,6.47
2018-08-13T13:01:47.457Z,6.60
2018-08-13T13:04:16.047Z,7.23
2018-08-13T13:06:44.524Z,5.17
2018-08-13T13:09:13.941Z,5.50
2018-08-13T13:11:42.523Z,7.93
2018-08-13T13:14:11.605Z,5.70
2018-08-13T13:16:40.066Z,4.53
2018-08-13T13:19:08.975Z,6.03
2018-08-13T13:21:37.544Z,5.70
2018-08-13T13:24:06.263Z,7.23
2018-08-13T13:26:35.224Z,5.40
2018-08-13T13:29:03.737Z,4.27
2018-08-13T13:31:32.197Z,3.73
2018-08-13T13:34:00.757Z,3.73
2018-08-13T13:36:29.248Z,3.60
2018-08-13T13:38:57.727Z,3.67
2018-08-13T13:41:26.210Z,4.83
2018-08-13T13:43:54.787Z,4.03
2018-08-13T13:46:23.269Z,4.00
2018-08-13T13:48:52.032Z,4.33
2018-08-13T13:51:20.496Z,3.07
2018-08-13T13:53:49.035Z,4.40
2018-08-13T13:56:17.491Z,3.93
2018-08-13T13:58:45.968Z,4.00
2018-08-13T14:01:14.421Z,4.67
2018-08-13T14:03:43.968Z,3.83
2018-08-13T14:06:12.431Z,8.17
2018-08-13T14:08:40.926Z,5.43
2018-08-13T14:11:09.443Z,5.17
2018-08-13T14:13:37.974Z,5.10
2018-08-13T14:16:06.494Z,5.47
2018-08-13T14:18:34.953Z,4.87
2018-08-13T14:21:03.392Z,3.00
2018-08-13T14:23:31.900Z,3.50
2018-08-13T14:26:00.358Z,2.90
2018-08-13T14:28:28.843Z,2.53
2018-08-13T14:30:57.301Z,2.60
2018-08-13T14:33:25.838Z,3.07
2018-08-13T14:35:54.284Z,3.40
2018-08-13T14:38:22.738Z,2.40
2018-08-13T14:40:51.238Z,3.63
2018-08-13T14:43:19.753Z,3.53
2018-08-13T14:45:48.262Z,4.50
2018-08-13T14:48:16.771Z,2.07
2018-08-13T14:50:45.253Z,4.33
2018-08-13T14:53:13.819Z,2.63
2018-08-13T14:55:42.287Z,3.87
2018-08-13T14:58:12.450Z,3.53
2018-08-13T15:00:41.080Z,3.73
2018-08-13T15:03:12.559Z,3.87
2018-08-13T15:05:41.258Z,5.27
2018-08-13T15:08:09.629Z,6.00
2018-08-13T15:10:38.095Z,6.47
2018-08-13T15:13:06.591Z,3.53
2018-08-13T15:15:35.057Z,5.03
2018-08-13T15:18:03.522Z,6.27
2018-08-13T15:20:32.441Z,5.30
2018-08-13T15:23:00.935Z,5.07
2018-08-13T15:25:29.864Z,6.40
2018-08-13T15:27:58.396Z,5.13
2018-08-13T15:30:27.323Z,3.87
2018-08-13T15:32:55.923Z,7.60
2018-08-13T15:35:24.412Z,3.90
2018-08-13T15:37:52.857Z,4.80
2018-08-13T15:40:21.310Z,5.50
2018-08-13T15:42:50.040Z,8.23
2018-08-13T15:45:21.312Z,4.73
2018-08-13T15:47:49.917Z,9.33
2018-08-13T15:50:19.676Z,5.83
2018-08-13T15:52:48.783Z,10.50
2018-08-13T15:55:17.241Z,7.53
2018-08-13T15:57:46.066Z,6.70
2018-08-13T16:00:21.871Z,7.63
2018-08-13T16:02:50.723Z,5.40
2018-08-13T16:05:19.392Z,6.27
2018-08-13T16:07:48.368Z,4.47
2018-08-13T16:10:17.465Z,4.80
2018-08-13T16:12:46.430Z,6.03
2018-08-13T16:15:14.938Z,6.40
2018-08-13T16:17:44.344Z,5.40
2018-08-13T16:20:15.697Z,6.43
2018-08-13T16:22:45.108Z,5.83
2018-08-13T16:25:13.893Z,6.20
2018-08-13T16:27:42.597Z,6.27
2018-08-13T16:30:16.409Z,8.47
2018-08-13T16:32:45.511Z,6.33
2018-08-13T16:35:13.997Z,6.57
2018-08-13T16:37:43.135Z,7.67
2018-08-13T16:40:11.700Z,5.63
2018-08-13T16:42:40.545Z,6.20
2018-08-13T16:45:09.942Z,6.17
2018-08-13T16:47:38.403Z,5.53
2018-08-13T16:50:12.094Z,5.47
2018-08-13T16:52:41.014Z,6.13
2018-08-13T16:55:10.215Z,7.33
2018-08-13T16:57:39.114Z,8.57
2018-08-13T17:00:09.397Z,7.27
2018-08-13T17:02:38.490Z,8.67
2018-08-13T17:05:08.671Z,9.30
2018-08-13T17:07:37.532Z,6.60
2018-08-13T17:10:07.820Z,7.67
2018-08-13T17:12:36.287Z,7.20
2018-08-13T17:15:06.084Z,8.17
2018-08-13T17:17:34.569Z,6.90
2018-08-13T17:20:03.072Z,7.93
2018-08-13T17:22:31.558Z,7.77
2018-08-13T17:25:00.044Z,7.77
2018-08-13T17:27:28.478Z,8.73
2018-08-13T17:29:56.948Z,7.63
2018-08-13T17:32:25.549Z,6.10
2018-08-13T17:34:54.336Z,6.23
2018-08-13T17:37:22.975Z,8.47
2018-08-13T17:39:51.395Z,8.63
2018-08-13T17:42:20.045Z,9.53
2018-08-13T17:44:48.664Z,9.53
2018-08-13T17:47:17.336Z,9.50
2018-08-13T17:49:45.947Z,9.27
2018-08-13T17:52:14.529Z,8.50
2018-08-13T17:54:43.199Z,9.30
2018-08-13T17:57:11.796Z,9.27
2018-08-13T17:59:40.472Z,9.53
2018-08-13T18:02:09.042Z,9.67
2018-08-13T18:04:37.511Z,7.07
2018-08-13T18:07:06.520Z,10.10
2018-08-13T18:09:36.697Z,7.57
2018-08-13T18:12:05.595Z,7.10
2018-08-13T18:14:34.012Z,6.50
2018-08-13T18:17:03.491Z,7.97
2018-08-13T18:19:32.004Z,6.77
2018-08-13T18:22:00.447Z,6.73
2018-08-13T18:24:28.948Z,24.13
2018-08-13T18:26:57.643Z,60.37
2018-08-13T18:29:26.139Z,128.77
2018-08-13T18:31:54.888Z,301.93
2018-08-13T18:34:23.371Z,173.53
2018-08-13T18:36:51.828Z,54.40
2018-08-13T18:39:20.614Z,32.33
2018-08-13T18:41:49.105Z,16.40
2018-08-13T18:44:18.533Z,7.70
2018-08-13T18:46:47.153Z,7.70
2018-08-13T18:49:15.687Z,6.80
2018-08-13T18:51:44.963Z,10.77
2018-08-13T18:54:13.707Z,7.60
2018-08-13T18:56:42.311Z,8.27
2018-08-13T18:59:10.835Z,9.87
2018-08-13T19:01:39.315Z,12.87
2018-08-13T19:04:08.392Z,7.97
2018-08-13T19:06:37.243Z,43.07
2018-08-13T19:09:07.597Z,74.30
2018-08-13T19:11:36.192Z,23.03
2018-08-13T19:14:05.644Z,92.53
2018-08-13T19:16:34.154Z,46.13
2018-08-13T19:19:02.627Z,91.93
2018-08-13T19:21:31.269Z,89.67
2018-08-13T19:23:59.778Z,29.63
2018-08-13T19:26:28.210Z,22.87
2018-08-13T19:28:56.669Z,11.50
2018-08-13T19:31:25.144Z,59.87
2018-08-13T19:33:54.303Z,22.33
2018-08-13T19:36:22.770Z,20.03
2018-08-13T19:38:51.203Z,66.50
2018-08-13T19:41:19.691Z,53.37
2018-08-13T19:43:48.231Z,46.53
2018-08-13T19:46:16.674Z,21.43
2018-08-13T19:48:45.284Z,22.50
2018-08-13T19:51:13.711Z,41.13
2018-08-13T19:53:42.287Z,32.97
2018-08-13T19:56:10.750Z,35.97
2018-08-13T19:58:39.680Z,17.13
2018-08-13T20:01:08.139Z,21.53
2018-08-13T20:03:36.667Z,13.40
2018-08-13T20:06:05.191Z,10.80
2018-08-13T20:08:33.623Z,10.30
2018-08-13T20:11:02.137Z,9.87
2018-08-13T20:13:30.633Z,11.73
2018-08-13T20:15:59.075Z,8.93
2018-08-13T20:18:27.531Z,13.57
2018-08-13T20:20:55.996Z,8.80
2018-08-13T20:23:24.454Z,10.37
2018-08-13T20:25:52.904Z,11.73
2018-08-13T20:28:21.355Z,9.10
2018-08-13T20:30:49.846Z,6.10
2018-08-13T20:33:18.367Z,7.73
2018-08-13T20:35:46.810Z,8.03
2018-08-13T20:38:15.244Z,6.37
2018-08-13T20:40:43.739Z,8.63
2018-08-13T20:43:12.179Z,8.10
2018-08-13T20:45:40.638Z,6.97
2018-08-13T20:48:09.088Z,10.30
2018-08-13T20:50:37.560Z,7.33
2018-08-13T20:53:06.083Z,7.77
2018-08-13T20:55:34.552Z,10.60
2018-08-13T20:58:03.016Z,6.37
2018-08-13T21:00:32.068Z,8.67
2018-08-13T21:03:00.556Z,9.10
2018-08-13T21:05:29.026Z,8.00
2018-08-13T21:07:57.476Z,7.63
2018-08-13T21:10:26.204Z,6.27
2018-08-13T21:12:54.738Z,6.87
2018-08-13T21:15:23.226Z,9.33
2018-08-13T21:17:51.696Z,7.90
2018-08-13T21:20:26.260Z,13.47
2018-08-13T21:22:54.900Z,8.90
2018-08-13T21:25:23.330Z,9.30
2018-08-13T21:27:51.846Z,16.17
2018-08-13T21:30:20.306Z,9.03
2018-08-13T21:32:48.852Z,7.87
2018-08-13T21:35:18.879Z,9.13
2018-08-13T21:37:47.747Z,6.67
2018-08-13T21:40:16.194Z,9.07
2018-08-13T21:42:45.452Z,10.53
2018-08-13T21:45:13.978Z,6.83
2018-08-13T21:47:43.089Z,8.70
2018-08-13T21:50:15.033Z,9.80
2018-08-13T21:52:44.011Z,8.60
2018-08-13T21:55:12.516Z,12.47
2018-08-13T21:57:41.031Z,10.10
2018-08-13T22:00:30.679Z,8.47
2018-08-13T22:03:00.654Z,9.83
2018-08-13T22:05:29.303Z,10.63
2018-08-13T22:07:57.812Z,12.10
2018-08-13T22:10:26.976Z,12.83
2018-08-13T22:12:55.599Z,9.67
2018-08-13T22:15:30.472Z,8.70
2018-08-13T22:18:00.710Z,9.27
2018-08-13T22:20:30.014Z,8.33
2018-08-13T22:22:59.723Z,9.30
2018-08-13T22:25:31.851Z,8.80
2018-08-13T22:28:00.383Z,10.37
2018-08-13T22:30:29.240Z,11.30
2018-08-13T22:32:57.702Z,9.20
2018-08-13T22:35:26.135Z,15.63
2018-08-13T22:37:54.849Z,8.97
2018-08-13T22:40:23.279Z,11.80
2018-08-13T22:42:51.765Z,9.27
2018-08-13T22:45:21.536Z,11.80
2018-08-13T22:47:50.018Z,10.67
2018-08-13T22:50:18.455Z,9.03
2018-08-13T22:52:46.937Z,9.70
2018-08-13T22:55:16.990Z,11.37
2018-08-13T22:57:45.536Z,11.20
2018-08-13T23:00:15.422Z,10.73
2018-08-13T23:02:44.815Z,11.33
2018-08-13T23:05:15.630Z,9.63
2018-08-13T23:07:44.162Z,10.70
2018-08-13T23:10:16.019Z,11.90
2018-08-13T23:12:44.964Z,11.27
2018-08-13T23:15:14.619Z,12.20
2018-08-13T23:17:43.572Z,12.40
2018-08-13T23:20:16.779Z,8.67
2018-08-13T23:22:50.444Z,11.07
2018-08-13T23:25:19.100Z,8.37
2018-08-13T23:27:48.553Z,11.27
2018-08-13T23:30:17.359Z,17.63
2018-08-13T23:32:47.360Z,12.40
2018-08-13T23:35:16.567Z,10.80
2018-08-13T23:37:44.992Z,9.20
2018-08-13T23:40:13.506Z,12.00
2018-08-13T23:49:28.797Z,6.67
2018-08-13T23:51:57.235Z,7.50
2018-08-13T23:54:25.659Z,6.17
2018-08-13T23:56:54.101Z,8.77
2018-08-13T23:59:22.564Z,5.47
